createdAt,value
2022-08-27T00:01:17.735Z,8.77
2022-08-27T00:03:59.603Z,8.87
2022-08-27T00:06:41.888Z,9.17
2022-08-27T00:09:27.138Z,8.40
2022-08-27T00:12:11.977Z,8.73
2022-08-27T00:14:35.970Z,8.57
2022-08-27T00:17:18.959Z,8.47
2022-08-27T00:20:02.034Z,8.70
2022-08-27T00:22:44.222Z,8.33
2022-08-27T00:25:27.268Z,8.13
2022-08-27T00:28:13.858Z,8.40
2022-08-27T00:30:56.693Z,8.03
2022-08-27T00:33:39.268Z,8.63
2022-08-27T00:36:21.778Z,8.63
2022-08-27T00:38:49.450Z,11.30
2022-08-27T00:41:36.174Z,9.07
2022-08-27T00:44:20.936Z,8.70
2022-08-27T00:46:56.695Z,9.50
2022-08-27T00:49:28.591Z,9.00
2022-08-27T00:52:15.961Z,8.43
2022-08-27T00:54:59.979Z,8.73
2022-08-27T00:57:42.871Z,9.40
2022-08-27T01:00:27.360Z,8.23
2022-08-27T01:03:09.663Z,8.73
2022-08-27T01:05:52.216Z,9.33
2022-08-27T01:08:37.318Z,9.80
2022-08-27T01:11:21.841Z,10.53
2022-08-27T01:14:04.282Z,10.63
2022-08-27T01:16:52.847Z,9.43
2022-08-27T01:19:41.043Z,10.27
2022-08-27T01:22:29.873Z,9.70
2022-08-27T01:25:07.308Z,8.77
2022-08-27T01:27:50.423Z,8.83
2022-08-27T01:30:35.063Z,9.27
2022-08-27T01:33:18.424Z,8.53
2022-08-27T01:36:00.466Z,9.57
2022-08-27T01:38:42.720Z,9.47
2022-08-27T01:41:26.042Z,9.77
2022-08-27T01:44:08.545Z,10.30
2022-08-27T01:46:49.932Z,9.83
2022-08-27T01:49:32.549Z,10.63
2022-08-27T01:52:15.583Z,10.47
2022-08-27T01:54:44.219Z,8.80
2022-08-27T01:57:13.369Z,9.83
2022-08-27T01:59:58.287Z,9.33
2022-08-27T02:02:42.033Z,8.80
2022-08-27T02:05:26.261Z,9.30
2022-08-27T02:08:08.560Z,9.77
2022-08-27T02:10:51.944Z,9.43
2022-08-27T02:13:36.010Z,8.90
2022-08-27T02:16:18.459Z,8.87
2022-08-27T02:19:00.358Z,9.00
2022-08-27T02:21:42.234Z,9.20
2022-08-27T02:24:24.454Z,9.53
2022-08-27T02:27:06.380Z,9.27
2022-08-27T02:29:51.791Z,8.03
2022-08-27T02:32:33.963Z,8.50
2022-08-27T02:35:16.292Z,8.23
2022-08-27T02:37:41.907Z,8.80
2022-08-27T02:40:20.337Z,9.40
2022-08-27T02:42:53.330Z,8.80
2022-08-27T02:45:36.763Z,8.97
2022-08-27T02:48:19.206Z,8.43
2022-08-27T02:50:59.914Z,9.40
2022-08-27T02:53:43.952Z,8.63
2022-08-27T02:56:26.473Z,8.67
2022-08-27T02:58:48.585Z,8.30
2022-08-27T03:01:19.302Z,9.23
2022-08-27T03:03:41.932Z,7.87
2022-08-27T03:06:11.019Z,8.30
2022-08-27T03:08:52.052Z,8.53
2022-08-27T03:11:34.834Z,8.40
2022-08-27T03:13:58.932Z,7.63
2022-08-27T03:16:23.602Z,8.63
2022-08-27T03:18:46.214Z,8.43
2022-08-27T03:21:28.874Z,9.37
2022-08-27T03:23:55.756Z,10.00
2022-08-27T03:26:37.313Z,9.93
2022-08-27T03:28:59.043Z,9.07
2022-08-27T03:31:27.155Z,9.10
2022-08-27T03:33:48.766Z,9.60
2022-08-27T03:36:11.214Z,9.20
2022-08-27T03:38:33.332Z,8.97
2022-08-27T03:40:56.010Z,9.10
2022-08-27T03:43:18.717Z,10.30
2022-08-27T03:46:00.506Z,10.40
2022-08-27T03:48:24.155Z,9.73
2022-08-27T03:50:48.282Z,10.50
2022-08-27T03:53:10.324Z,9.57
2022-08-27T03:55:32.121Z,10.80
2022-08-27T03:57:54.239Z,10.80
2022-08-27T04:00:21.972Z,10.80
2022-08-27T04:02:44.606Z,10.33
2022-08-27T04:05:07.980Z,11.63
2022-08-27T04:07:29.887Z,12.07
2022-08-27T04:09:51.628Z,13.80
2022-08-27T04:12:13.385Z,12.40
2022-08-27T04:14:35.501Z,15.67
2022-08-27T04:16:57.509Z,16.13
2022-08-27T04:19:20.539Z,16.47
2022-08-27T04:21:45.843Z,16.33
2022-08-27T04:24:09.172Z,16.87
2022-08-27T04:26:31.132Z,18.77
2022-08-27T04:28:52.458Z,18.83
2022-08-27T04:31:35.438Z,19.47
2022-08-27T04:34:17.633Z,21.30
2022-08-27T04:37:01.381Z,20.77
2022-08-27T04:39:36.505Z,21.90
2022-08-27T04:42:20.314Z,22.10
2022-08-27T04:44:46.928Z,22.70
2022-08-27T04:47:08.405Z,20.93
2022-08-27T04:49:31.194Z,22.27
2022-08-27T04:51:55.360Z,23.67
2022-08-27T04:54:19.463Z,24.17
2022-08-27T04:56:54.153Z,22.57
2022-08-27T04:59:16.448Z,25.33
2022-08-27T05:01:40.104Z,21.77
2022-08-27T05:04:06.794Z,21.37
2022-08-27T05:06:50.509Z,21.57
2022-08-27T05:09:37.361Z,22.13
2022-08-27T05:12:15.492Z,23.73
2022-08-27T05:14:57.488Z,22.60
2022-08-27T05:17:39.378Z,22.87
2022-08-27T05:20:20.847Z,26.27
2022-08-27T05:22:55.103Z,26.30
2022-08-27T05:25:38.986Z,28.40
2022-08-27T05:28:28.069Z,27.43
2022-08-27T05:31:11.727Z,29.13
2022-08-27T05:33:56.272Z,27.77
2022-08-27T05:36:48.473Z,27.47
2022-08-27T05:39:30.692Z,30.30
2022-08-27T05:41:59.595Z,28.93
2022-08-27T05:44:40.604Z,28.37
2022-08-27T05:47:04.652Z,29.30
2022-08-27T05:49:26.578Z,29.23
2022-08-27T05:51:48.851Z,29.03
2022-08-27T05:54:32.108Z,29.00
2022-08-27T05:57:15.972Z,30.23
2022-08-27T06:00:15.818Z,35.30
2022-08-27T06:02:58.490Z,30.57
2022-08-27T06:05:20.287Z,36.07
2022-08-27T06:07:41.640Z,33.00
2022-08-27T06:10:02.916Z,32.30
2022-08-27T06:12:27.145Z,31.10
2022-08-27T06:15:11.119Z,31.90
2022-08-27T06:17:53.405Z,32.07
2022-08-27T06:20:35.996Z,32.00
2022-08-27T06:22:57.218Z,32.57
2022-08-27T06:25:18.521Z,32.43
2022-08-27T06:27:41.544Z,33.30
2022-08-27T06:30:23.773Z,31.77
2022-08-27T06:33:05.793Z,31.57
2022-08-27T06:35:47.857Z,32.20
2022-08-27T06:38:09.413Z,33.57
2022-08-27T06:40:31.149Z,33.67
2022-08-27T06:42:54.185Z,33.80
2022-08-27T06:45:16.305Z,34.77
2022-08-27T06:47:37.605Z,35.70
2022-08-27T06:49:59.601Z,36.17
2022-08-27T06:52:21.227Z,38.83
2022-08-27T06:54:42.816Z,39.03
2022-08-27T06:57:04.367Z,35.90
2022-08-27T06:59:27.782Z,36.27
2022-08-27T07:01:51.402Z,36.27
2022-08-27T07:04:15.129Z,37.97
2022-08-27T07:06:38.078Z,37.53
2022-08-27T07:09:21.009Z,36.20
2022-08-27T07:12:02.536Z,37.73
2022-08-27T07:14:45.631Z,37.70
2022-08-27T07:17:28.582Z,36.53
2022-08-27T07:19:52.879Z,38.20
2022-08-27T07:22:14.738Z,39.47
2022-08-27T07:24:37.485Z,34.70
2022-08-27T07:26:58.976Z,39.73
2022-08-27T07:29:20.217Z,35.70
2022-08-27T07:31:43.747Z,38.93
2022-08-27T07:34:06.317Z,38.47
2022-08-27T07:36:28.302Z,36.17
2022-08-27T07:38:56.650Z,36.67
2022-08-27T07:41:20.643Z,37.30
2022-08-27T07:43:59.721Z,36.63
2022-08-27T07:46:22.178Z,35.53
2022-08-27T07:48:45.295Z,37.47
2022-08-27T07:51:08.654Z,34.50
2022-08-27T07:53:30.226Z,36.70
2022-08-27T07:55:51.754Z,37.13
2022-08-27T07:58:16.891Z,35.27
2022-08-27T08:00:42.923Z,37.93
2022-08-27T08:03:05.025Z,39.20
2022-08-27T08:05:27.725Z,37.53
2022-08-27T08:07:49.092Z,38.07
2022-08-27T08:10:12.356Z,37.90
2022-08-27T08:12:34.537Z,38.53
2022-08-27T08:14:58.065Z,41.87
2022-08-27T08:17:19.987Z,40.50
2022-08-27T08:19:41.741Z,43.63
2022-08-27T08:22:05.921Z,41.37
2022-08-27T08:24:27.549Z,38.20
2022-08-27T08:26:48.822Z,40.70
2022-08-27T08:29:31.352Z,39.40
2022-08-27T08:32:13.345Z,39.83
2022-08-27T08:34:56.331Z,43.53
2022-08-27T08:37:39.906Z,40.53
2022-08-27T08:40:17.686Z,39.10
2022-08-27T08:43:05.299Z,40.50
2022-08-27T08:45:49.028Z,40.63
2022-08-27T08:48:32.509Z,41.37
2022-08-27T08:51:18.484Z,40.70
2022-08-27T08:54:06.905Z,41.13
2022-08-27T08:56:32.850Z,41.87
2022-08-27T08:59:19.160Z,41.93
2022-08-27T09:02:01.225Z,38.33
2022-08-27T09:04:45.387Z,38.33
2022-08-27T09:07:33.344Z,34.63
2022-08-27T09:10:22.857Z,37.50
2022-08-27T09:13:05.426Z,35.30
2022-08-27T09:15:50.843Z,39.83
2022-08-27T09:18:35.387Z,34.47
2022-08-27T09:21:27.925Z,38.17
2022-08-27T09:24:19.979Z,38.30
2022-08-27T09:27:03.893Z,36.63
2022-08-27T09:29:49.369Z,38.80
2022-08-27T09:32:33.314Z,37.57
2022-08-27T09:35:19.522Z,37.07
2022-08-27T09:37:49.209Z,38.30
2022-08-27T09:40:40.207Z,35.03
2022-08-27T09:43:31.880Z,37.33
2022-08-27T09:46:19.715Z,37.60
2022-08-27T09:48:50.251Z,39.83
2022-08-27T09:51:21.913Z,41.23
2022-08-27T09:54:06.457Z,40.53
2022-08-27T09:56:51.433Z,40.17
2022-08-27T09:59:42.544Z,36.43
2022-08-27T10:02:26.643Z,36.13
2022-08-27T10:05:15.634Z,37.23
2022-08-27T10:08:00.920Z,31.53
2022-08-27T10:10:47.438Z,31.73
2022-08-27T10:13:17.140Z,26.73
2022-08-27T10:16:09.936Z,21.07
2022-08-27T10:18:41.334Z,17.97
2022-08-27T10:21:29.553Z,15.87
2022-08-27T10:24:00.848Z,19.57
2022-08-27T10:26:48.440Z,22.50
2022-08-27T10:29:40.871Z,20.13
2022-08-27T10:32:34.515Z,20.53
2022-08-27T10:35:22.828Z,19.83
2022-08-27T10:38:00.838Z,17.17
2022-08-27T10:40:48.647Z,18.23
2022-08-27T10:43:52.597Z,19.07
2022-08-27T10:46:51.226Z,17.90
2022-08-27T10:49:38.871Z,18.77
2022-08-27T10:52:27.716Z,17.57
2022-08-27T10:55:13.826Z,16.07
2022-08-27T10:58:08.105Z,16.77
2022-08-27T11:00:59.665Z,16.80
2022-08-27T11:03:32.265Z,15.23
2022-08-27T11:06:09.081Z,16.30
2022-08-27T11:08:56.765Z,17.90
2022-08-27T11:14:37.709Z,16.53
2022-08-27T11:17:26.168Z,15.83
2022-08-27T11:20:17.833Z,16.13
2022-08-27T11:22:47.424Z,15.70
2022-08-27T11:25:35.817Z,15.53
2022-08-27T11:28:18.370Z,14.90
2022-08-27T11:31:19.870Z,14.33
2022-08-27T11:34:07.926Z,16.63
2022-08-27T11:37:10.641Z,14.33
2022-08-27T11:40:19.516Z,13.77
2022-08-27T11:43:04.122Z,14.03
2022-08-27T11:45:34.758Z,13.53
2022-08-27T11:47:58.930Z,14.30
2022-08-27T11:50:22.044Z,13.00
2022-08-27T11:52:55.761Z,13.00
2022-08-27T11:55:28.166Z,15.40
2022-08-27T11:57:51.812Z,14.33
2022-08-27T12:00:19.294Z,15.30
2022-08-27T12:02:41.693Z,15.17
2022-08-27T12:05:11.510Z,14.10
2022-08-27T12:07:36.194Z,12.70
2022-08-27T12:10:28.478Z,13.67
2022-08-27T12:13:18.256Z,11.63
2022-08-27T12:16:23.852Z,8.43
2022-08-27T12:19:26.746Z,7.53
2022-08-27T12:22:01.758Z,7.53
2022-08-27T12:24:42.833Z,7.10
2022-08-27T12:27:36.236Z,7.00
2022-08-27T12:30:21.427Z,7.73
2022-08-27T12:33:11.511Z,8.73
2022-08-27T12:36:05.821Z,7.73
2022-08-27T12:38:59.383Z,8.17
2022-08-27T12:41:44.743Z,7.83
2022-08-27T12:44:29.212Z,7.63
2022-08-27T12:47:13.484Z,7.07
2022-08-27T12:49:58.645Z,6.07
2022-08-27T12:52:53.630Z,6.47
2022-08-27T12:55:47.284Z,10.13
2022-08-27T12:58:37.833Z,7.13
2022-08-27T13:01:32.985Z,7.07
2022-08-27T13:04:20.464Z,7.00
2022-08-27T13:07:06.766Z,6.80
2022-08-27T13:09:30.444Z,7.03
2022-08-27T13:11:55.728Z,7.10
2022-08-27T13:14:19.983Z,6.43
2022-08-27T13:16:51.425Z,6.43
2022-08-27T13:19:19.430Z,6.17
2022-08-27T13:21:41.476Z,5.93
2022-08-27T13:24:04.923Z,6.33
2022-08-27T13:26:29.918Z,6.30
2022-08-27T13:28:52.535Z,6.80
2022-08-27T13:31:13.805Z,6.20
2022-08-27T13:33:42.436Z,6.70
2022-08-27T13:36:27.436Z,6.57
2022-08-27T13:38:56.433Z,6.30
2022-08-27T13:41:24.395Z,6.13
2022-08-27T13:43:47.387Z,6.20
2022-08-27T13:46:12.887Z,6.50
2022-08-27T13:48:36.724Z,6.70
2022-08-27T13:51:10.217Z,7.03
2022-08-27T13:54:00.333Z,6.83
2022-08-27T13:56:27.697Z,6.83
2022-08-27T13:58:49.991Z,5.57
2022-08-27T14:01:14.477Z,5.83
2022-08-27T14:03:51.722Z,5.97
2022-08-27T14:06:24.163Z,5.70
2022-08-27T14:08:57.128Z,5.03
2022-08-27T14:11:24.606Z,4.70
2022-08-27T14:13:47.447Z,5.37
2022-08-27T14:16:17.505Z,4.90
2022-08-27T14:18:59.801Z,4.60
2022-08-27T14:21:36.205Z,5.33
2022-08-27T14:24:17.074Z,4.13
2022-08-27T14:26:39.559Z,4.93
2022-08-27T14:29:01.728Z,4.83
2022-08-27T14:31:27.537Z,5.17
2022-08-27T14:33:52.346Z,5.20
2022-08-27T14:36:14.724Z,5.40
2022-08-27T14:38:40.915Z,5.10
2022-08-27T14:41:02.965Z,5.17
2022-08-27T14:43:28.735Z,5.33
2022-08-27T14:45:50.900Z,5.20
2022-08-27T14:48:18.621Z,5.10
2022-08-27T14:50:43.521Z,5.53
2022-08-27T14:53:12.603Z,4.97
2022-08-27T14:55:34.721Z,5.60
2022-08-27T14:57:56.782Z,5.43
2022-08-27T15:00:18.658Z,6.13
2022-08-27T15:02:41.398Z,5.93
2022-08-27T15:05:11.299Z,6.10
2022-08-27T15:07:35.173Z,6.57
2022-08-27T15:09:56.926Z,6.73
2022-08-27T15:12:26.565Z,6.90
2022-08-27T15:14:48.452Z,6.47
2022-08-27T15:17:15.297Z,6.07
2022-08-27T15:19:52.223Z,6.00
2022-08-27T15:22:17.810Z,6.50
2022-08-27T15:24:51.212Z,6.20
2022-08-27T15:27:18.584Z,6.30
2022-08-27T15:30:01.154Z,6.40
2022-08-27T15:32:46.791Z,6.77
2022-08-27T15:35:30.071Z,6.43
2022-08-27T15:38:12.119Z,6.33
2022-08-27T15:40:57.045Z,6.63
2022-08-27T15:43:39.570Z,7.00
2022-08-27T15:46:22.179Z,7.17
2022-08-27T15:49:04.000Z,6.43
2022-08-27T15:51:49.960Z,7.07
2022-08-27T15:54:34.579Z,6.70
2022-08-27T15:57:18.175Z,6.80
2022-08-27T16:00:00.669Z,7.10
2022-08-27T16:02:44.892Z,7.70
2022-08-27T16:05:27.651Z,8.37
2022-08-27T16:08:10.477Z,8.30
2022-08-27T16:10:52.443Z,7.90
2022-08-27T16:13:36.726Z,8.60
2022-08-27T16:16:19.142Z,9.20
2022-08-27T16:19:02.074Z,9.83
2022-08-27T16:21:44.903Z,10.60
2022-08-27T16:24:15.090Z,10.57
2022-08-27T16:26:57.262Z,10.13
2022-08-27T16:29:29.280Z,10.33
2022-08-27T16:32:12.328Z,9.70
2022-08-27T16:34:55.380Z,8.93
2022-08-27T16:37:38.191Z,9.10
2022-08-27T16:40:20.074Z,9.03
2022-08-27T16:43:04.692Z,8.70
2022-08-27T16:45:48.434Z,9.03
2022-08-27T16:48:48.445Z,9.23
2022-08-27T16:51:39.197Z,10.53
2022-08-27T16:54:21.587Z,10.77
2022-08-27T16:57:03.454Z,10.23
2022-08-27T16:59:45.973Z,9.73
2022-08-27T17:02:36.525Z,9.73
2022-08-27T17:05:35.054Z,9.93
2022-08-27T17:08:17.446Z,9.43
2022-08-27T17:10:42.062Z,8.93
2022-08-27T17:13:03.858Z,9.63
2022-08-27T17:15:28.694Z,9.60
2022-08-27T17:17:51.696Z,10.20
2022-08-27T17:20:15.105Z,10.37
2022-08-27T17:22:37.062Z,10.13
2022-08-27T17:24:58.602Z,10.67
2022-08-27T17:27:20.399Z,10.93
2022-08-27T17:29:43.610Z,10.43
2022-08-27T17:32:07.610Z,10.97
2022-08-27T17:34:32.290Z,10.83
2022-08-27T17:36:55.004Z,11.33
2022-08-27T17:39:36.720Z,11.27
2022-08-27T17:42:16.481Z,11.43
2022-08-27T17:44:44.871Z,12.80
2022-08-27T17:47:10.526Z,12.30
2022-08-27T17:49:53.974Z,11.47
2022-08-27T17:52:29.124Z,12.63
2022-08-27T17:55:12.318Z,11.93
2022-08-27T17:57:51.065Z,11.37
2022-08-27T18:00:34.071Z,10.57
2022-08-27T18:03:17.661Z,10.63
2022-08-27T18:06:00.735Z,10.37
2022-08-27T18:08:23.147Z,10.43
2022-08-27T18:11:06.393Z,10.33
2022-08-27T18:13:37.257Z,12.27
2022-08-27T18:16:19.535Z,12.13
2022-08-27T18:19:06.808Z,11.93
2022-08-27T18:21:50.454Z,11.47
2022-08-27T18:24:32.272Z,10.77
2022-08-27T18:27:14.262Z,11.33
2022-08-27T18:29:40.468Z,13.00
2022-08-27T18:32:22.747Z,12.03
2022-08-27T18:35:05.816Z,12.87
2022-08-27T18:37:49.631Z,11.77
2022-08-27T18:40:33.440Z,11.80
2022-08-27T18:43:16.650Z,12.00
2022-08-27T18:45:58.755Z,12.60
2022-08-27T18:48:42.090Z,11.80
2022-08-27T18:51:26.117Z,11.70
2022-08-27T18:54:14.673Z,13.47
2022-08-27T18:56:57.036Z,12.13
2022-08-27T18:59:39.007Z,12.57
2022-08-27T19:02:21.384Z,13.30
2022-08-27T19:05:03.325Z,13.93
2022-08-27T19:07:45.372Z,14.50
2022-08-27T19:10:29.598Z,13.37
2022-08-27T19:13:11.276Z,12.90
2022-08-27T19:15:54.172Z,12.60
2022-08-27T19:18:36.570Z,12.80
2022-08-27T19:21:18.638Z,12.93
2022-08-27T19:24:00.499Z,13.60
2022-08-27T19:26:46.396Z,12.90
2022-08-27T19:29:28.290Z,13.00
2022-08-27T19:32:10.321Z,12.60
2022-08-27T19:34:46.814Z,13.87
2022-08-27T19:37:14.766Z,13.60
2022-08-27T19:39:38.255Z,14.47
2022-08-27T19:42:21.390Z,15.43
2022-08-27T19:45:03.187Z,15.07
2022-08-27T19:47:45.494Z,15.17
2022-08-27T19:50:23.325Z,16.30
2022-08-27T19:52:59.446Z,15.03
2022-08-27T19:55:22.047Z,14.03
2022-08-27T19:57:47.138Z,14.13
2022-08-27T20:00:10.291Z,14.53
2022-08-27T20:02:31.697Z,15.73
2022-08-27T20:05:16.431Z,15.10
2022-08-27T20:07:35.199Z,14.50
2022-08-27T20:09:57.069Z,15.40
2022-08-27T20:12:23.156Z,15.33
2022-08-27T20:14:46.637Z,14.73
2022-08-27T20:17:12.804Z,13.77
2022-08-27T20:19:35.397Z,16.77
2022-08-27T20:21:56.956Z,15.23
2022-08-27T20:24:18.404Z,14.33
2022-08-27T20:26:39.953Z,14.30
2022-08-27T20:29:02.126Z,14.03
2022-08-27T20:31:25.157Z,13.37
2022-08-27T20:33:46.825Z,13.60
2022-08-27T20:36:09.140Z,14.50
2022-08-27T20:38:30.828Z,13.40
2022-08-27T20:40:52.260Z,13.47
2022-08-27T20:43:13.900Z,15.03
2022-08-27T20:45:37.312Z,15.37
2022-08-27T20:48:00.859Z,14.47
2022-08-27T20:50:26.707Z,15.17
2022-08-27T20:52:48.438Z,12.77
2022-08-27T20:55:12.159Z,13.80
2022-08-27T20:57:33.548Z,14.03
2022-08-27T21:00:12.303Z,14.67
2022-08-27T21:02:34.027Z,14.10
2022-08-27T21:04:58.162Z,14.57
2022-08-27T21:07:20.459Z,14.90
2022-08-27T21:09:55.653Z,14.80
2022-08-27T21:12:22.624Z,14.93
2022-08-27T21:14:44.623Z,18.03
2022-08-27T21:17:08.238Z,16.93
2022-08-27T21:19:32.369Z,15.97
2022-08-27T21:21:56.431Z,14.63
2022-08-27T21:24:20.658Z,14.60
2022-08-27T21:26:42.048Z,15.13
2022-08-27T21:29:03.656Z,16.27
2022-08-27T21:31:26.039Z,15.87
2022-08-27T21:33:47.603Z,16.10
2022-08-27T21:36:12.127Z,15.40
2022-08-27T21:38:35.474Z,15.23
2022-08-27T21:40:57.013Z,16.37
2022-08-27T21:43:18.334Z,17.20
2022-08-27T21:45:41.669Z,16.50
2022-08-27T21:48:03.430Z,15.97
2022-08-27T21:50:25.269Z,16.97
2022-08-27T21:52:46.689Z,16.03
2022-08-27T21:55:10.916Z,16.03
2022-08-27T21:57:32.756Z,16.83
2022-08-27T21:59:54.400Z,16.47
2022-08-27T22:02:38.834Z,16.63
2022-08-27T22:04:59.189Z,17.60
2022-08-27T22:07:20.815Z,17.10
2022-08-27T22:09:42.142Z,16.20
2022-08-27T22:12:05.748Z,15.67
2022-08-27T22:14:28.754Z,16.67
2022-08-27T22:16:49.990Z,15.33
2022-08-27T22:19:11.685Z,15.77
2022-08-27T22:21:33.344Z,16.13
2022-08-27T22:23:55.047Z,16.50
2022-08-27T22:26:16.233Z,17.73
2022-08-27T22:28:39.010Z,16.90
2022-08-27T22:31:00.560Z,16.47
2022-08-27T22:33:22.046Z,18.03
2022-08-27T22:35:43.598Z,17.00
2022-08-27T22:38:06.238Z,15.97
2022-08-27T22:40:30.169Z,16.57
2022-08-27T22:42:52.561Z,16.13
2022-08-27T22:45:16.282Z,16.13
2022-08-27T22:47:37.585Z,17.13
2022-08-27T22:49:58.864Z,18.60
2022-08-27T22:52:20.547Z,17.50
2022-08-27T22:54:44.973Z,17.47
2022-08-27T22:57:06.924Z,17.47
2022-08-27T22:59:31.899Z,15.90
2022-08-27T23:01:56.766Z,16.27
2022-08-27T23:04:18.479Z,16.80
2022-08-27T23:06:40.263Z,18.50
2022-08-27T23:09:01.834Z,17.13
2022-08-27T23:11:23.599Z,17.23
2022-08-27T23:13:45.477Z,16.57
2022-08-27T23:16:09.137Z,17.23
2022-08-27T23:18:32.426Z,17.43
2022-08-27T23:20:54.371Z,19.57
2022-08-27T23:23:16.004Z,21.17
2022-08-27T23:25:59.574Z,20.27
2022-08-27T23:28:21.576Z,19.70
2022-08-27T23:30:44.095Z,21.97
2022-08-27T23:33:05.885Z,19.93
2022-08-27T23:35:29.485Z,21.50
2022-08-27T23:37:51.245Z,22.70
2022-08-27T23:40:13.174Z,22.37
2022-08-27T23:42:34.824Z,22.77
2022-08-27T23:44:56.348Z,22.67
2022-08-27T23:47:18.520Z,20.27
2022-08-27T23:49:40.142Z,21.47
2022-08-27T23:52:02.985Z,22.43
2022-08-27T23:54:25.117Z,21.00
2022-08-27T23:56:46.737Z,19.67
2022-08-27T23:59:08.113Z,19.13
